Terminal Aerodrome Forecast
Issued by NWS

Home | Current Version | Previous Version | Text Only | Print | Product List | Glossary On
Versions: 1 2 3 4 5 6 7 8 9 10 11 12 13
799
FTUS43 KGRR 201951 AAA
TAFBTL
TAF AMD
KBTL 201951Z 2020/2118 18012G20KT P6SM SCT250
     FM202200 18006KT P6SM SCT250
     FM211600 18012KT P6SM BKN150=

USA.gov is the U.S. government's official web portal to all federal, state and local government web resources and services.